createdAt,value
2018-08-13T00:06:43.342Z,22.4
2018-08-13T00:16:42.587Z,22.3
2018-08-13T00:26:41.821Z,22.3
2018-08-13T00:36:41.060Z,22.2
2018-08-13T00:46:40.299Z,22.1
2018-08-13T00:56:39.544Z,22.1
2018-08-13T01:06:38.780Z,21.9
2018-08-13T01:16:38.120Z,21.9
2018-08-13T01:26:37.259Z,21.8
2018-08-13T01:36:36.498Z,21.8
2018-08-13T01:46:35.735Z,21.6
2018-08-13T01:56:34.977Z,21.6
2018-08-13T02:06:34.213Z,21.6
2018-08-13T02:16:33.449Z,21.5
2018-08-13T02:26:32.687Z,21.5
2018-08-13T02:36:31.927Z,21.4
2018-08-13T02:46:31.169Z,21.3
2018-08-13T02:56:30.403Z,21.3
2018-08-13T03:06:29.641Z,21.2
2018-08-13T03:16:28.881Z,21.2
2018-08-13T03:26:28.127Z,21.2
2018-08-13T03:36:27.361Z,21.2
2018-08-13T03:46:26.619Z,21.1
2018-08-13T03:56:25.843Z,21.1
2018-08-13T04:06:25.080Z,21.1
2018-08-13T04:16:24.325Z,21.3
2018-08-13T04:26:23.561Z,21.4
2018-08-13T04:36:22.799Z,21.6
2018-08-13T04:46:22.038Z,21.9
2018-08-13T04:56:21.279Z,22.1
2018-08-13T05:06:20.516Z,22.4
2018-08-13T05:16:19.754Z,22.6
2018-08-13T05:26:19.043Z,22.9
2018-08-13T05:36:18.236Z,23.1
2018-08-13T05:46:17.472Z,23.4
2018-08-13T05:56:16.709Z,23.5
2018-08-13T06:06:15.948Z,23.6
2018-08-13T06:16:15.188Z,23.8
2018-08-13T06:26:14.424Z,24
2018-08-13T06:36:13.664Z,24.2
2018-08-13T06:46:12.903Z,24.3
2018-08-13T06:56:12.140Z,24.5
2018-08-13T07:06:11.410Z,24.8
2018-08-13T07:16:10.617Z,24.8
2018-08-13T07:26:09.856Z,24.9
2018-08-13T07:36:09.094Z,25.1
2018-08-13T07:46:08.334Z,25.3
2018-08-13T07:56:07.572Z,25.4
2018-08-13T08:06:06.815Z,25.6
2018-08-13T08:16:06.050Z,25.8
2018-08-13T08:26:05.289Z,25.9
2018-08-13T08:36:04.530Z,26.4
2018-08-13T08:46:03.801Z,26.4
2018-08-13T08:56:03.025Z,26.7
2018-08-13T09:06:02.386Z,26.6
2018-08-13T09:16:01.486Z,26.6
2018-08-13T09:26:00.725Z,26.9
2018-08-13T09:35:59.969Z,27
2018-08-13T09:45:59.208Z,26.8
2018-08-13T09:55:58.445Z,27.1
2018-08-13T10:05:57.685Z,27.1
2018-08-13T10:15:56.925Z,27.3
2018-08-13T10:25:56.168Z,27.9
2018-08-13T10:35:55.410Z,28.1
2018-08-13T10:45:54.649Z,28.3
2018-08-13T10:55:53.891Z,28.1
2018-08-13T11:05:53.135Z,28.2
2018-08-13T11:15:52.375Z,27.7
2018-08-13T11:25:51.612Z,28.3
2018-08-13T11:35:50.851Z,28.1
2018-08-13T11:45:50.091Z,28.8
2018-08-13T11:55:49.383Z,29
2018-08-13T12:05:48.577Z,27.8
2018-08-13T12:15:47.814Z,28.8
2018-08-13T12:25:47.055Z,28.4
2018-08-13T12:35:46.298Z,27.4
2018-08-13T12:45:45.537Z,28.5
2018-08-13T12:55:44.777Z,28.1
2018-08-13T13:05:44.016Z,27.8
2018-08-13T13:15:43.254Z,27.9
2018-08-13T13:25:42.494Z,27.9
2018-08-13T13:35:41.735Z,27.5
2018-08-13T13:45:40.976Z,27.6
2018-08-13T13:55:40.214Z,27.9
2018-08-13T14:05:39.454Z,27.9
2018-08-13T14:15:38.696Z,27.6
2018-08-13T14:25:37.933Z,27.6
2018-08-13T14:35:37.173Z,27.6
2018-08-13T14:45:36.413Z,27.5
2018-08-13T14:55:35.653Z,27.5
2018-08-13T15:05:34.959Z,27.6
2018-08-13T15:15:34.136Z,27.6
2018-08-13T15:25:33.373Z,27.4
2018-08-13T15:35:32.617Z,27.4
2018-08-13T15:45:31.857Z,27.3
2018-08-13T15:55:31.128Z,27.2
2018-08-13T16:05:30.346Z,27.1
2018-08-13T16:15:29.588Z,27.1
2018-08-13T16:25:28.830Z,27
2018-08-13T16:35:28.072Z,26.8
2018-08-13T16:45:27.316Z,26.5
2018-08-13T16:55:26.558Z,26.4
2018-08-13T17:05:25.801Z,26
2018-08-13T17:15:25.042Z,25.6
2018-08-13T17:25:24.288Z,25.7
2018-08-13T17:35:23.526Z,25.6
2018-08-13T17:45:22.772Z,25.4
2018-08-13T17:55:22.020Z,25.3
2018-08-13T18:05:21.257Z,25.2
2018-08-13T18:15:20.594Z,25.1
2018-08-13T18:25:19.747Z,25
2018-08-13T18:35:18.986Z,24.8
2018-08-13T18:45:18.229Z,24.8
2018-08-13T18:55:17.471Z,24.7
2018-08-13T19:05:16.767Z,24.7
2018-08-13T19:15:15.958Z,24.8
2018-08-13T19:25:15.204Z,24.8
2018-08-13T19:35:14.447Z,24.8
2018-08-13T19:45:13.694Z,24.7
2018-08-13T19:55:12.928Z,24.7
2018-08-13T20:05:12.175Z,24.7
2018-08-13T20:15:11.415Z,24.6
2018-08-13T20:25:10.656Z,24.6
2018-08-13T20:35:09.899Z,24.4
2018-08-13T20:45:09.143Z,24.3
2018-08-13T20:55:08.386Z,24.3
2018-08-13T21:05:07.625Z,24.3
2018-08-13T21:15:06.865Z,24.2
2018-08-13T21:25:06.109Z,24.1
2018-08-13T21:35:05.348Z,24.1
2018-08-13T21:45:04.588Z,24
2018-08-13T21:55:03.831Z,23.9
2018-08-13T22:05:03.073Z,23.8
2018-08-13T22:15:02.312Z,23.8
2018-08-13T22:25:01.550Z,23.7
2018-08-13T22:35:00.789Z,23.6
2018-08-13T22:45:00.032Z,23.5
2018-08-13T22:54:59.320Z,23.4
2018-08-13T23:04:58.511Z,23.4
2018-08-13T23:14:57.756Z,23.3
2018-08-13T23:24:56.991Z,23.3
2018-08-13T23:34:56.231Z,23.1
2018-08-13T23:44:55.473Z,23
2018-08-13T23:54:54.710Z,22.9
